Hauptseite
METAR-TAF:

METAR-TAF

Flughäfen :

Pointe-à-Pitre, Guadeloupe

Flughafen Pointe-à-Pitre

Breite: 16-16N, Länge: 061-31W, Höhe: 11 m

Beobachtung

Neuester Wetterbericht von vor 16 Minuten, um 14:00 UTC
Wind 14 kt aus Ost
Temperatur 30°C
Luftfeuchtigkeit 59%
Luftdruck 1016 hPa
Sichtweite 10 km oder mehr
Leicht bewölkt in der Höhe von 3300 ft

METAR: TFFR 201400Z AUTO 10014KT 9999 FEW033 30/21 Q1016 NOSIG

Zeit: 10:16 (14:16 UTC)

Prognose

Neuester Wetterbericht von vor 3 Stunden und 16 Minuten, um 11:00 UTC
Gültige Prognose vom 20 um 12 UTC bis 21 um 12 UTC
Wind 15 kt aus Ost
Sichtweite 10 km oder mehr
Aufgelockert bewölkt in der Höhe von 3000 ft
Übergehend zu
vom 21 um 00 UTC bis 21 um 02 UTC
Wind 3 kt aus unterschiedlichen Richtungen

TAF: TFFR 201100Z 2012/2112 10015KT 9999 SCT030 BECMG 2100/2102 VRB03KT

Wetterbeobachtungen und Prognosen von mehr als 4000 Flughäfen (METAR und TAF Bericht).

Die verfügbaren Stationen werden durch gelbe und rote Markierungen auf der Karte dargestellt.

Führen Sie die Maus auf sie, um den Namen der Station zu sehen.

Darauf klicken, um die Beobachtung von Wetterbeobachtungen und Prognosen zu sehen.

Um die Karte zu ändern : klicken Sie auf den grünen Tasten mit einem schwarzen Kreuz Zum Vergrößern, auf den grünen Button mit einem Gedankenstrich zu verkleinern, oder auf die grünen Pfeile für benachbarte Karten.


METAR-TAF: